Latest Weather Observations for Kurnell

IDN60901

Issued at 6:52 pm EDT Sunday 28 February 2021 (issued every 10 minutes, with the page automatically refreshed every 10 minutes)

About weather observations | Map of Sydney area stations | Latest observations for Sydney area | Other Formats
Station Details ID: 066043 Name: KURNELL AWS Lat: -34.00 Lon: 151.21 Height: 4.0 m
Data from the previous 72 hours. | See also: Recent months at Kurnell
Date/Time
EDT
Temp
°C
App
Temp
°C
Dew
Point
°C
Rel
Hum
%
Delta-T
°C
Wind Press
QNH
hPa
Press
MSL
hPa
Rain since
9am
mm
Dir  Spd
km/h
Gust
km/h
Spd
kts
Gust
kts
28/06:30pm - - - - - ESE 15 20 8 11 - - -
28/06:00pm - - - - - ESE 19 28 10 15 - - -
28/05:30pm - - - - - SE 20 26 11 14 - - -
28/05:00pm - - - - - SE 22 28 12 15 - - -
28/04:30pm - - - - - SE 20 28 11 15 - - -
28/04:00pm - - - - - SE 20 26 11 14 - - -
28/03:30pm - - - - - SSE 19 26 10 14 - - -
28/03:00pm - - - - - SSE 20 28 11 15 - - -
28/02:30pm - - - - - SSE 19 26 10 14 - - -
28/02:00pm - - - - - SSE 20 26 11 14 - - -
28/01:30pm - - - - - S 20 28 11 15 - - -
28/01:00pm - - - - - S 20 28 11 15 - - -
28/12:30pm - - - - - SSW 26 32 14 17 - - -
28/12:00pm - - - - - SW 26 33 14 18 - - -
28/11:30am - - - - - SSW 26 33 14 18 - - -
28/11:00am - - - - - SSW 28 33 15 18 - - -
28/10:30am - - - - - SSW 26 33 14 18 - - -
28/10:00am - - - - - SSW 26 33 14 18 - - -
28/09:30am - - - - - SSW 30 39 16 21 - - -
28/09:00am - - - - - SSW 32 37 17 20 - - -
28/08:30am - - - - - SSW 28 37 15 20 - - -
28/08:00am - - - - - SSW 26 33 14 18 - - -
28/07:30am - - - - - SSW 24 32 13 17 - - -
28/07:00am - - - - - SSW 22 30 12 16 - - -
28/06:30am - - - - - SSW 11 15 6 8 - - -
28/06:00am - - - - - SSW 13 15 7 8 - - -
28/05:30am - - - - - SSW 9 11 5 6 - - -
28/05:00am - - - - - SSW 11 13 6 7 - - -
28/04:30am - - - - - SSW 9 9 5 5 - - -
28/04:00am - - - - - SW 6 7 3 4 - - -
28/03:30am - - - - - SW 6 7 3 4 - - -
28/03:00am - - - - - SW 6 7 3 4 - - -
28/02:30am - - - - - SW 9 9 5 5 - - -
28/02:00am - - - - - NNW 9 11 5 6 - - -
28/01:30am - - - - - N 9 11 5 6 - - -
28/01:00am - - - - - N 15 17 8 9 - - -
28/12:30am - - - - - N 13 15 7 8 - - -
28/12:00am - - - - - N 17 20 9 11 - - -
 
Date/Time
EDT
Temp
°C
App
Temp
°C
Dew
Point
°C
Rel
Hum
%
Delta-T
°C
Wind Press
QNH
hPa
Press
MSL
hPa
Rain since
9am
mm
Dir  Spd
km/h
Gust
km/h
Spd
kts
Gust
kts
27/11:30pm - - - - - NNE 19 22 10 12 - - -
27/11:00pm - - - - - NNE 17 22 9 12 - - -
27/10:30pm - - - - - NNE 15 20 8 11 - - -
27/10:00pm - - - - - NNE 17 26 9 14 - - -
27/09:30pm - - - - - NNE 24 30 13 16 - - -
27/09:00pm - - - - - NNE 20 26 11 14 - - -
27/08:30pm - - - - - NNE 20 26 11 14 - - -
27/08:00pm - - - - - NE 28 33 15 18 - - -
27/07:30pm - - - - - NE 26 30 14 16 - - -
27/07:00pm - - - - - NE 22 28 12 15 - - -
27/06:30pm - - - - - NE 19 26 10 14 - - -
27/06:00pm - - - - - NE 15 19 8 10 - - -
27/05:30pm - - - - - NE 19 24 10 13 - - -
27/05:00pm - - - - - NE 20 26 11 14 - - -
27/04:30pm - - - - - NE 19 22 10 12 - - -
27/04:00pm - - - - - NE 17 22 9 12 - - -
27/03:30pm - - - - - NE 17 20 9 11 - - -
27/03:00pm - - - - - NE 15 19 8 10 - - -
27/02:30pm - - - - - NE 17 22 9 12 - - -
27/02:00pm - - - - - ENE 17 19 9 10 - - -
27/01:30pm - - - - - NNE 15 19 8 10 - - -
27/01:00pm - - - - - NE 15 17 8 9 - - -
27/12:30pm - - - - - NE 15 17 8 9 - - -
27/12:00pm - - - - - N 4 9 2 5 - - -
27/11:30am - - - - - WNW 2 6 1 3 - - -
27/11:00am - - - - - WNW 4 7 2 4 - - -
27/10:30am - - - - - CALM 0 0 0 0 - - -
27/10:00am - - - - - NNW 2 9 1 5 - - -
27/09:30am - - - - - NW 7 9 4 5 - - -
27/09:00am - - - - - WSW 13 15 7 8 - - -
27/08:30am - - - - - WSW 11 13 6 7 - - -
27/08:00am - - - - - W 9 11 5 6 - - -
27/07:30am - - - - - WNW 9 11 5 6 - - -
27/07:00am - - - - - WNW 9 11 5 6 - - -
27/06:30am - - - - - SW 6 9 3 5 - - -
27/06:00am - - - - - SW 11 13 6 7 - - -
27/05:30am - - - - - ESE 4 7 2 4 - - -
27/05:00am - - - - - ESE 6 9 3 5 - - -
27/04:30am - - - - - E 7 9 4 5 - - -
27/04:00am - - - - - E 7 11 4 6 - - -
27/03:30am - - - - - E 9 13 5 7 - - -
27/03:00am - - - - - E 11 13 6 7 - - -
27/02:30am - - - - - E 11 15 6 8 - - -
27/02:00am - - - - - ESE 13 15 7 8 - - -
27/01:30am - - - - - ESE 11 15 6 8 - - -
27/01:00am - - - - - ESE 13 15 7 8 - - -
27/12:30am - - - - - ESE 15 20 8 11 - - -
27/12:00am - - - - - E 15 19 8 10 - - -
 
Date/Time
EDT
Temp
°C
App
Temp
°C
Dew
Point
°C
Rel
Hum
%
Delta-T
°C
Wind Press
QNH
hPa
Press
MSL
hPa
Rain since
9am
mm
Dir  Spd
km/h
Gust
km/h
Spd
kts
Gust
kts
26/11:30pm - - - - - ESE 15 20 8 11 - - -
26/11:00pm - - - - - ESE 17 24 9 13 - - -
26/10:30pm - - - - - ESE 17 20 9 11 - - -
26/10:00pm - - - - - ESE 19 24 10 13 - - -
26/09:30pm - - - - - ESE 20 28 11 15 - - -
26/09:00pm - - - - - ESE 19 28 10 15 - - -
26/08:30pm - - - - - SE 19 26 10 14 - - -
26/08:00pm - - - - - SE 20 28 11 15 - - -
26/07:30pm - - - - - SE 22 32 12 17 - - -
26/07:00pm - - - - - SE 22 28 12 15 - - -
26/06:30pm - - - - - SE 22 30 12 16 - - -
26/06:00pm - - - - - SE 24 32 13 17 - - -
26/05:30pm - - - - - SE 28 35 15 19 - - -
26/05:00pm - - - - - SE 26 33 14 18 - - -
26/04:30pm - - - - - SE 26 35 14 19 - - -
26/04:00pm - - - - - SSE 20 28 11 15 - - -
26/03:30pm - - - - - SSE 22 32 12 17 - - -
26/03:00pm - - - - - SSE 20 28 11 15 - - -
26/02:30pm - - - - - SE 20 26 11 14 - - -
26/02:00pm - - - - - SE 22 30 12 16 - - -
26/01:30pm - - - - - SE 20 28 11 15 - - -
26/01:00pm - - - - - SE 20 26 11 14 - - -
26/12:30pm - - - - - S 20 28 11 15 - - -
26/12:00pm - - - - - S 19 26 10 14 - - -
26/11:30am - - - - - S 20 30 11 16 - - -
26/11:00am - - - - - S 19 26 10 14 - - -
26/10:30am - - - - - SSW 22 30 12 16 - - -
26/10:00am - - - - - SSW 22 28 12 15 - - -
26/09:30am - - - - - SSW 20 26 11 14 - - -
26/09:00am - - - - - SSW 20 28 11 15 - - -
26/08:30am - - - - - SSW 19 24 10 13 - - -
26/08:00am - - - - - W 11 13 6 7 - - -
26/07:30am - - - - - W 13 17 7 9 - - -
26/07:00am - - - - - W 15 15 8 8 - - -
26/06:30am - - - - - W 9 13 5 7 - - -
26/06:00am - - - - - W 15 17 8 9 - - -
26/05:30am - - - - - NW 19 22 10 12 - - -
26/05:00am - - - - - WNW 22 26 12 14 - - -
26/04:30am - - - - - WNW 26 28 14 15 - - -
26/04:00am - - - - - NW 22 26 12 14 - - -
26/03:30am - - - - - WNW 17 19 9 10 - - -
26/03:00am - - - - - NW 15 17 8 9 - - -
26/02:30am - - - - - NW 17 19 9 10 - - -
26/02:00am - - - - - NW 17 19 9 10 - - -
26/01:30am - - - - - NW 13 19 7 10 - - -
26/01:00am - - - - - NNW 13 15 7 8 - - -
26/12:30am - - - - - NW 13 15 7 8 - - -
26/12:00am - - - - - NNW 11 13 6 7 - - -
 
Date/Time
EDT
Temp
°C
App
Temp
°C
Dew
Point
°C
Rel
Hum
%
Delta-T
°C
Wind Press
QNH
hPa
Press
MSL
hPa
Rain since
9am
mm
Dir  Spd
km/h
Gust
km/h
Spd
kts
Gust
kts
25/11:30pm - - - - - N 15 17 8 9 - - -
25/11:00pm - - - - - NNW 15 19 8 10 - - -
25/10:30pm - - - - - NW 15 17 8 9 - - -
25/10:00pm - - - - - NNW 13 15 7 8 - - -
25/09:30pm - - - - - NNW 13 15 7 8 - - -
25/09:00pm - - - - - NW 15 17 8 9 - - -
25/08:30pm - - - - - NW 15 17 8 9 - - -
25/08:00pm - - - - - N 15 17 8 9 - - -
25/07:30pm - - - - - NNW 15 19 8 10 - - -
25/07:00pm - - - - - N 17 19 9 10 - - -

Latest Capital City Observations: Canberra | Sydney | Melbourne | Brisbane | Adelaide | Perth | Hobart | Darwin

Other formats

Comma delimited format used in spreadsheet applications
http://www.bom.gov.au/fwo/IDN60901/IDN60901.95756.axf

JavaScript Object Notation format (JSON) in row-major order
http://www.bom.gov.au/fwo/IDN60901/IDN60901.95756.json

Data quality

Most of these data are generated automatically and are frequently updated. Quality checks on data are not normally performed. It is possible for incorrect values to appear. Refer to information at About Latest Weather Observations and please check the disclaimer before using these data.